This is the latest recevied weather packets stored in our database for station/object VU3OPX-13. If no packets are shown the sender has not sent any weather packets the latest 10 day(s).
| Time | Temp. | Humidity | Pressure | Rain* | Wind** | Luminosity | Snow |
|---|---|---|---|---|---|---|---|
| 1787671187 | 22.78° C | 89% | 1012 hPa | 0 mm | - | - | - |
| 1787669400 | 22.78° C | 89% | 1012 hPa | 0 mm | - | - | - |
| 1787667612 | 23.33° C | 88% | 1011 hPa | 0 mm | - | - | - |
| 1787664037 | 23.89° C | 85% | 1010 hPa | 0 mm | - | - | - |
| 1787662248 | 23.89° C | 85% | 1010 hPa | 0 mm | - | - | - |
| 1787660461 | 25° C | 80% | 1009 hPa | 0 mm | - | - | - |
| 1787658673 | 25° C | 79% | 1009 hPa | 0 mm | - | - | - |
| 1787656886 | 26.11° C | 75% | 1009 hPa | 0 mm | - | - | - |
| 1787655099 | 26.11° C | 74% | 1008 hPa | 0 mm | - | - | - |
| 1787653310 | 26.67° C | 72% | 1008 hPa | 0 mm | - | - | - |
| 1787651522 | 26.67° C | 72% | 1008 hPa | 0 mm | - | - | - |
| 1787649734 | 27.22° C | 68% | 1008 hPa | 0 mm | - | - | - |
| 1787647946 | 27.22° C | 68% | 1008 hPa | 0 mm | - | - | - |
| 1787644370 | 27.78° C | 66% | 1009 hPa | 0 mm | - | - | - |
| 1787642583 | 27.78° C | 66% | 1010 hPa | 0 mm | - | - | - |
| 1787640796 | 27.78° C | 65% | 1010 hPa | 0 mm | - | - | - |
| 1787637218 | 26.67° C | 68% | 1011 hPa | 0 mm | - | - | - |
| 1787631857 | 25° C | 76% | 1012 hPa | 0 mm | - | - | - |
| 1787630070 | 25° C | 75% | 1011 hPa | 0 mm | - | - | - |
| 1787628283 | 23.89° C | 82% | 1011 hPa | 0 mm | - | - | - |
| 1787626496 | 23.89° C | 80% | 1011 hPa | 0 mm | - | - | - |
| 1787624708 | 22.22° C | 89% | 1011 hPa | 0 mm | - | - | - |
| 1787622921 | 22.22° C | 89% | 1011 hPa | 0 mm | - | - | - |
| 1787621134 | 21.67° C | 92% | 1010 hPa | 0 mm | - | - | - |
| 1787619347 | 21.67° C | 92% | 1010 hPa | 0 mm | - | - | - |
* Rain latest hour (hover to see other rain measurements)
** Current wind speed in m/s (hover to see current wind gust speed)